Main page
METAR-TAF:

METAR-TAF

Airports :

Innsbruck Airport

Innsbruck, Austria

latitude: 47-16N, longitude: 011-21E, elevation: 581 m

Current weather observation

The report was made 42 minutes ago, at 10:50 UTC
Wind 5 kt from the West
Temperature -3°C
Humidity 58%
Pressure 1010 hPa
Visibility 10 km or more
no clouds below 1500 m and no cumulonimbus

METAR: LOWI 221050Z 26005KT CAVOK M03/M10 Q1010 R08/19//95 NOSIG

Time: 12:32 (11:32 UTC)

Forecast

The report was made 6 hours and 17 minutes ago, at 05:15 UTC
Forecast valid from 22 at 06 UTC to 23 at 06 UTC
Wind 2 kt from variable directions
Visibility 10 km or more
no clouds below 1500 m and no cumulonimbus
Becoming
from 22 at 19 UTC to 22 at 21 UTC
Visibility 10 km or more
Broken clouds at a height of 12000 ft

TAF: LOWI 220515Z 2206/2306 VRB02KT CAVOK TX01/2214Z TNM06/2206Z BECMG 2219/2221 9999 BKN120

Weather observations and forecasts of more than 4000 airports (METAR and TAF reports).

The available stations are represented by yellow and red dots on the map.

Hover mouse over dot to see the name of the station.

Then click to see weather observations and forecasts.

To change the map : click on the green buttons with a black cross to zoom in, on the green button with a dash to zoom out, or on the green arrows for adjacent maps.


METAR-TAF: